createdAt,value
2019-03-01T00:00:39.300Z,80.70
2019-03-01T00:03:11.385Z,84.95
2019-03-01T00:06:25.430Z,88.85
2019-03-01T00:09:29.561Z,87.33
2019-03-01T00:12:33.351Z,86.30
2019-03-01T00:15:36.382Z,90.22
2019-03-01T00:18:21.089Z,91.30
2019-03-01T00:24:49.215Z,101.15
2019-03-01T00:27:54.315Z,111.77
2019-03-01T00:31:00.631Z,111.22
2019-03-01T00:33:42.203Z,111.47
2019-03-01T00:37:00.373Z,111.37
2019-03-01T00:40:04.994Z,124.30
2019-03-01T00:43:11.064Z,112.62
2019-03-01T00:45:44.277Z,125.05
2019-03-01T00:48:14.162Z,134.70
2019-03-01T00:53:24.530Z,133.95
2019-03-01T00:55:54.360Z,127.17
2019-03-01T01:04:19.445Z,133.32
2019-03-01T01:06:50.743Z,150.30
2019-03-01T01:09:20.540Z,138.62
2019-03-01T01:11:51.328Z,137.57
2019-03-01T01:14:21.912Z,134.90
2019-03-01T01:16:51.384Z,147.13
2019-03-01T01:19:21.132Z,143.17
2019-03-01T01:21:52.780Z,158.95
2019-03-01T01:24:22.519Z,151.20
2019-03-01T01:26:54.126Z,160.00
2019-03-01T01:29:26.357Z,149.07
2019-03-01T01:31:55.842Z,159.63
2019-03-01T01:34:27.646Z,155.18
2019-03-01T01:37:01.243Z,154.20
2019-03-01T01:39:31.052Z,162.70
2019-03-01T01:42:00.687Z,159.72
2019-03-01T01:44:30.223Z,166.07
2019-03-01T01:55:14.849Z,164.28
2019-03-01T01:57:46.333Z,176.20
2019-03-01T02:00:16.298Z,174.87
2019-03-01T02:02:50.396Z,173.75
2019-03-01T02:05:22.667Z,183.93
2019-03-01T02:08:50.906Z,175.65
2019-03-01T02:11:20.603Z,186.37
2019-03-01T02:13:51.941Z,204.75
2019-03-01T02:16:24.486Z,180.27
2019-03-01T02:18:57.788Z,189.70
2019-03-01T02:21:25.233Z,191.47
2019-03-01T02:23:54.687Z,174.42
2019-03-01T02:26:24.459Z,177.50
2019-03-01T02:28:53.912Z,186.97
2019-03-01T02:31:25.026Z,189.97
2019-03-01T02:33:54.344Z,180.75
2019-03-01T02:36:24.762Z,198.10
2019-03-01T02:38:54.159Z,192.15
2019-03-01T02:41:23.478Z,193.95
2019-03-01T02:43:52.863Z,183.00
2019-03-01T02:46:27.700Z,184.32
2019-03-01T02:48:57.077Z,182.57
2019-03-01T02:51:26.477Z,183.68
2019-03-01T02:53:56.379Z,181.82
2019-03-01T02:56:29.922Z,194.60
2019-03-01T02:59:52.988Z,187.30
2019-03-01T03:02:47.062Z,190.32
2019-03-01T03:05:28.789Z,202.18
2019-03-01T03:08:05.440Z,196.75
2019-03-01T03:10:36.120Z,187.95
2019-03-01T03:13:09.804Z,200.85
2019-03-01T03:15:44.745Z,177.40
2019-03-01T03:18:14.280Z,178.90
2019-03-01T03:26:10.535Z,175.87
2019-03-01T03:28:40.065Z,184.25
2019-03-01T03:31:09.937Z,182.75
2019-03-01T03:33:39.501Z,186.40
2019-03-01T03:36:08.960Z,174.60
2019-03-01T03:38:39.016Z,167.53
2019-03-01T03:41:08.628Z,188.82
2019-03-01T03:43:38.044Z,173.80
2019-03-01T03:46:07.652Z,170.75
2019-03-01T03:48:43.468Z,181.52
2019-03-01T03:51:17.983Z,173.38
2019-03-01T03:53:47.530Z,174.38
2019-03-01T03:56:18.443Z,180.82
2019-03-01T03:58:48.019Z,186.28
2019-03-01T04:01:17.590Z,190.75
2019-03-01T04:03:48.763Z,185.48
2019-03-01T04:06:18.477Z,183.35
2019-03-01T04:08:50.198Z,192.60
2019-03-01T04:11:21.576Z,179.53
2019-03-01T04:13:50.899Z,191.12
2019-03-01T04:16:20.798Z,182.45
2019-03-01T04:18:53.583Z,187.50
2019-03-01T04:21:29.095Z,191.10
2019-03-01T04:23:58.858Z,179.50
2019-03-01T04:26:28.690Z,181.35
2019-03-01T04:28:58.858Z,187.12
2019-03-01T04:31:30.996Z,174.57
2019-03-01T04:34:01.558Z,185.82
2019-03-01T04:36:31.223Z,189.97
2019-03-01T04:39:00.881Z,175.20
2019-03-01T04:41:43.654Z,178.40
2019-03-01T04:44:15.385Z,177.10
2019-03-01T04:46:45.093Z,183.45
2019-03-01T04:49:14.449Z,179.25
2019-03-01T04:51:43.921Z,185.73
2019-03-01T04:54:13.397Z,187.68
2019-03-01T04:57:10.147Z,179.80
2019-03-01T04:59:39.677Z,168.52
2019-03-01T05:02:09.263Z,183.78
2019-03-01T05:04:39.049Z,187.18
2019-03-01T05:07:14.294Z,178.40
2019-03-01T05:09:42.312Z,178.23
2019-03-01T05:12:12.154Z,207.55
2019-03-01T05:14:42.666Z,189.30
2019-03-01T05:17:12.209Z,183.03
2019-03-01T05:19:44.034Z,185.32
2019-03-01T05:22:13.429Z,175.32
2019-03-01T05:24:42.879Z,179.12
2019-03-01T05:27:12.201Z,178.57
2019-03-01T05:29:45.752Z,178.95
2019-03-01T05:32:15.262Z,164.85
2019-03-01T05:34:44.866Z,172.32
2019-03-01T05:37:15.406Z,184.03
2019-03-01T05:39:49.239Z,169.97
2019-03-01T05:42:19.482Z,177.15
2019-03-01T05:44:48.731Z,163.57
2019-03-01T05:47:18.195Z,184.95
2019-03-01T05:49:48.368Z,183.47
2019-03-01T05:52:18.370Z,168.97
2019-03-01T05:54:47.752Z,173.25
2019-03-01T05:57:19.053Z,168.60
2019-03-01T05:59:49.021Z,178.47
2019-03-01T06:02:57.607Z,174.42
2019-03-01T06:05:35.448Z,158.57
2019-03-01T06:08:38.446Z,162.90
2019-03-01T06:11:36.072Z,154.63
2019-03-01T06:14:42.972Z,82.75
2019-03-01T06:17:40.523Z,122.67
2019-03-01T06:20:29.736Z,114.35
2019-03-01T06:23:17.421Z,110.32
2019-03-01T06:26:39.884Z,102.10
2019-03-01T06:29:40.507Z,100.87
2019-03-01T06:32:46.396Z,92.15
2019-03-01T06:35:56.331Z,102.32
2019-03-01T06:39:15.061Z,97.42
2019-03-01T06:42:20.702Z,91.30
2019-03-01T06:45:15.024Z,98.03
2019-03-01T06:47:49.847Z,100.05
2019-03-01T06:50:53.312Z,105.22
2019-03-01T06:53:22.563Z,109.52
2019-03-01T06:56:00.369Z,114.10
2019-03-01T06:58:37.623Z,108.67
2019-03-01T07:01:10.833Z,115.28
2019-03-01T07:03:40.086Z,112.97
2019-03-01T07:06:09.259Z,90.22
2019-03-01T07:08:39.652Z,80.50
2019-03-01T07:11:11.388Z,66.20
2019-03-01T07:13:40.761Z,60.10
2019-03-01T07:16:09.996Z,47.15
2019-03-01T07:18:41.601Z,56.10
2019-03-01T07:21:10.790Z,48.40
2019-03-01T07:23:42.113Z,35.05
2019-03-01T07:26:11.357Z,29.60
2019-03-01T07:28:40.521Z,26.40
2019-03-01T07:31:10.292Z,21.65
2019-03-01T07:33:39.491Z,27.82
2019-03-01T07:36:08.724Z,26.42
2019-03-01T07:38:37.928Z,29.02
2019-03-01T07:41:07.205Z,19.48
2019-03-01T07:43:37.632Z,18.32
2019-03-01T07:46:06.962Z,17.27
2019-03-01T07:48:36.202Z,24.40
2019-03-01T07:51:05.428Z,21.35
2019-03-01T07:53:36.050Z,24.47
2019-03-01T07:56:05.539Z,23.07
2019-03-01T07:58:34.732Z,26.73
2019-03-01T08:01:04.107Z,19.50
2019-03-01T08:03:33.356Z,23.75
2019-03-01T08:06:02.563Z,21.50
2019-03-01T08:08:34.917Z,23.87
2019-03-01T08:11:02.723Z,22.40
2019-03-01T08:13:31.823Z,19.45
2019-03-01T08:16:01.026Z,24.70
2019-03-01T08:18:30.154Z,26.02
2019-03-01T08:20:59.436Z,23.57
2019-03-01T08:23:31.805Z,19.95
2019-03-01T08:25:59.902Z,25.10
2019-03-01T08:28:29.201Z,20.35
2019-03-01T08:30:59.979Z,17.30
2019-03-01T08:33:29.166Z,14.87
2019-03-01T08:35:58.429Z,21.07
2019-03-01T08:38:28.898Z,17.12
2019-03-01T08:40:58.494Z,18.77
2019-03-01T08:43:27.700Z,19.45
2019-03-01T08:45:56.865Z,18.27
2019-03-01T08:48:26.073Z,18.82
2019-03-01T08:50:56.747Z,19.25
2019-03-01T08:53:25.905Z,21.25
2019-03-01T08:55:55.112Z,19.27
2019-03-01T08:58:24.341Z,22.58
2019-03-01T09:00:59.571Z,18.67
2019-03-01T09:03:31.073Z,18.60
2019-03-01T09:06:00.369Z,21.42
2019-03-01T09:08:29.601Z,19.27
2019-03-01T09:10:59.702Z,19.15
2019-03-01T09:13:29.024Z,18.80
2019-03-01T09:15:58.151Z,19.70
2019-03-01T09:18:27.273Z,21.15
2019-03-01T09:21:04.604Z,27.73
2019-03-01T09:23:27.486Z,20.10
2019-03-01T09:25:56.795Z,19.37
2019-03-01T09:28:26.096Z,23.83
2019-03-01T09:30:55.247Z,21.17
2019-03-01T09:33:24.444Z,23.27
2019-03-01T09:36:18.001Z,21.80
2019-03-01T09:38:48.423Z,27.27
2019-03-01T09:41:17.579Z,24.72
2019-03-01T09:43:46.899Z,24.43
2019-03-01T09:46:16.136Z,22.05
2019-03-01T09:48:45.537Z,22.40
2019-03-01T09:51:16.209Z,22.58
2019-03-01T09:53:45.834Z,20.25
2019-03-01T09:56:15.077Z,23.00
2019-03-01T09:58:44.355Z,18.85
2019-03-01T10:01:15.643Z,18.10
2019-03-01T10:03:45.149Z,22.95
2019-03-01T10:06:14.701Z,18.48
2019-03-01T10:08:43.920Z,18.30
2019-03-01T10:11:17.413Z,20.68
2019-03-01T10:13:46.640Z,19.07
2019-03-01T10:16:15.908Z,18.15
2019-03-01T10:18:48.750Z,16.90
2019-03-01T10:21:19.417Z,17.05
2019-03-01T10:23:56.068Z,19.35
2019-03-01T10:26:28.344Z,20.27
2019-03-01T10:28:57.621Z,19.62
2019-03-01T10:31:30.631Z,18.20
2019-03-01T10:33:59.828Z,22.62
2019-03-01T10:36:35.890Z,21.25
2019-03-01T10:39:10.516Z,26.17
2019-03-01T10:41:39.711Z,23.27
2019-03-01T10:44:09.155Z,24.47
2019-03-01T10:46:38.355Z,23.67
2019-03-01T10:49:07.533Z,25.05
2019-03-01T10:51:36.780Z,26.85
2019-03-01T10:54:06.566Z,27.17
2019-03-01T10:56:35.838Z,30.15
2019-03-01T10:59:06.900Z,29.87
2019-03-01T11:01:36.189Z,29.92
2019-03-01T11:04:05.519Z,30.65
2019-03-01T11:06:36.426Z,32.20
2019-03-01T11:09:07.633Z,26.80
2019-03-01T11:11:36.976Z,28.38
2019-03-01T11:14:06.161Z,26.25
2019-03-01T11:16:38.422Z,28.27
2019-03-01T11:19:07.639Z,29.48
2019-03-01T11:21:37.184Z,30.12
2019-03-01T11:24:07.171Z,28.85
2019-03-01T11:29:42.235Z,27.42
2019-03-01T11:32:11.449Z,26.93
2019-03-01T11:34:40.621Z,27.67
2019-03-01T11:37:19.374Z,24.27
2019-03-01T11:39:48.655Z,22.70
2019-03-01T11:42:19.517Z,26.33
2019-03-01T11:49:21.799Z,23.77
2019-03-01T11:51:51.124Z,23.15
2019-03-01T11:55:01.176Z,32.15
2019-03-01T11:58:17.549Z,25.90
2019-03-01T12:00:52.120Z,25.25
2019-03-01T12:03:47.537Z,24.67
2019-03-01T12:10:39.873Z,25.27
2019-03-01T12:13:09.063Z,28.70
2019-03-01T12:16:03.189Z,25.85
2019-03-01T12:19:52.354Z,28.65
2019-03-01T12:23:06.934Z,28.10
2019-03-01T12:26:00.366Z,29.23
2019-03-01T12:28:31.022Z,29.87
2019-03-01T12:34:18.816Z,25.75
2019-03-01T12:37:03.003Z,29.37
2019-03-01T12:39:32.219Z,27.07
2019-03-01T12:42:03.706Z,25.82
2019-03-01T12:44:53.067Z,28.62
2019-03-01T12:51:27.771Z,33.20
2019-03-01T12:54:00.040Z,34.03
2019-03-01T12:56:31.311Z,31.82
2019-03-01T12:59:03.272Z,36.88
2019-03-01T13:05:08.515Z,38.80
2019-03-01T13:07:37.737Z,38.00
2019-03-01T13:10:26.545Z,37.03
2019-03-01T13:13:26.211Z,39.00
2019-03-01T13:15:55.203Z,38.15
2019-03-01T13:18:24.497Z,33.28
2019-03-01T13:20:53.854Z,33.40
2019-03-01T13:23:23.094Z,40.38
2019-03-01T13:25:52.299Z,38.48
2019-03-01T13:28:21.429Z,32.78
2019-03-01T13:30:51.395Z,38.00
2019-03-01T13:33:21.628Z,33.90
2019-03-01T13:35:50.802Z,33.80
2019-03-01T13:38:20.000Z,22.20
2019-03-01T13:40:50.644Z,23.45
2019-03-01T13:47:44.010Z,23.80
2019-03-01T13:50:14.463Z,25.05
2019-03-01T13:52:49.007Z,20.97
2019-03-01T13:55:22.034Z,18.70
2019-03-01T13:57:51.139Z,21.70
2019-03-01T14:00:20.886Z,18.73
2019-03-01T14:02:50.585Z,21.77
2019-03-01T14:05:19.804Z,24.72
2019-03-01T14:07:55.529Z,19.87
2019-03-01T14:10:20.406Z,25.08
2019-03-01T14:12:49.711Z,30.45
2019-03-01T14:25:30.198Z,27.82
2019-03-01T14:28:02.108Z,25.88
2019-03-01T14:30:33.250Z,27.25
2019-03-01T14:33:01.494Z,29.37
2019-03-01T14:35:30.729Z,28.62
2019-03-01T14:37:59.955Z,32.00
2019-03-01T14:40:29.112Z,27.32
2019-03-01T14:42:58.307Z,31.45
2019-03-01T14:45:27.643Z,27.07
2019-03-01T14:47:57.026Z,26.55
2019-03-01T14:50:29.557Z,22.32
2019-03-01T14:52:58.949Z,22.90
2019-03-01T14:55:42.547Z,25.30
2019-03-01T14:58:24.719Z,23.70
2019-03-01T15:00:59.120Z,25.40
2019-03-01T15:03:34.657Z,23.07
2019-03-01T15:06:04.626Z,23.20
2019-03-01T15:08:33.924Z,21.77
2019-03-01T15:11:09.192Z,21.65
2019-03-01T15:13:38.621Z,24.27
2019-03-01T15:16:08.132Z,22.32
2019-03-01T15:18:39.113Z,22.07
2019-03-01T15:21:08.996Z,19.57
2019-03-01T15:23:38.155Z,21.45
2019-03-01T15:26:08.302Z,24.20
2019-03-01T15:28:58.576Z,23.35
2019-03-01T15:31:27.642Z,24.27
2019-03-01T15:33:56.867Z,21.70
2019-03-01T15:36:26.132Z,26.73
2019-03-01T15:38:55.363Z,25.65
2019-03-01T15:41:24.622Z,32.95
2019-03-01T15:43:53.862Z,36.63
2019-03-01T15:46:23.197Z,44.33
2019-03-01T15:48:52.508Z,44.15
2019-03-01T15:51:21.778Z,48.63
2019-03-01T15:53:51.019Z,54.58
2019-03-01T15:56:22.044Z,57.35
2019-03-01T15:58:51.030Z,59.20
2019-03-01T16:01:20.256Z,62.35
2019-03-01T16:03:49.624Z,66.75
2019-03-01T16:06:22.247Z,58.50
2019-03-01T16:08:49.707Z,64.90
2019-03-01T16:11:18.906Z,73.70
2019-03-01T16:13:49.245Z,70.12
2019-03-01T16:16:18.672Z,70.35
2019-03-01T16:18:47.799Z,74.27
2019-03-01T16:21:16.930Z,73.92
2019-03-01T16:23:46.231Z,72.00
2019-03-01T16:26:15.443Z,72.12
2019-03-01T16:28:44.675Z,87.60
2019-03-01T16:31:13.775Z,83.97
2019-03-01T16:33:43.097Z,87.72
2019-03-01T16:36:23.341Z,95.28
2019-03-01T16:38:51.451Z,77.82
2019-03-01T16:41:20.693Z,86.97
2019-03-01T16:43:49.862Z,89.15
2019-03-01T16:46:19.120Z,84.55
2019-03-01T16:48:51.834Z,84.37
2019-03-01T16:51:19.710Z,88.62
2019-03-01T16:53:55.971Z,89.47
2019-03-01T16:56:26.542Z,87.80
2019-03-01T16:58:55.877Z,93.05
2019-03-01T17:01:26.036Z,82.92
2019-03-01T17:03:56.228Z,87.67
2019-03-01T17:06:25.363Z,71.95
2019-03-01T17:08:54.524Z,87.17
2019-03-01T17:11:23.657Z,89.83
2019-03-01T17:13:52.963Z,83.33
2019-03-01T17:16:23.765Z,99.42
2019-03-01T17:18:54.892Z,97.30
2019-03-01T17:21:26.342Z,97.75
2019-03-01T17:23:57.770Z,94.40
2019-03-01T17:26:29.881Z,101.33
2019-03-01T17:29:02.712Z,88.00
2019-03-01T17:31:31.443Z,96.60
2019-03-01T17:34:04.428Z,96.53
2019-03-01T17:36:33.607Z,97.75
2019-03-01T17:39:04.397Z,82.35
2019-03-01T17:41:45.599Z,74.05
2019-03-01T17:44:18.251Z,50.85
2019-03-01T17:46:51.158Z,52.98
2019-03-01T17:49:34.468Z,53.83
2019-03-01T18:16:43.831Z,43.68
2019-03-01T18:19:13.344Z,40.52
2019-03-01T18:21:46.341Z,41.98
2019-03-01T18:24:20.665Z,44.63
2019-03-01T18:26:49.863Z,53.28
2019-03-01T18:29:20.576Z,53.15
2019-03-01T18:32:10.881Z,47.62
2019-03-01T18:35:55.777Z,47.30
2019-03-01T18:38:27.694Z,52.83
2019-03-01T18:41:01.429Z,45.60
2019-03-01T18:43:30.697Z,54.00
2019-03-01T18:46:01.011Z,53.73
2019-03-01T18:48:30.284Z,51.13
2019-03-01T18:51:03.490Z,50.75
2019-03-01T18:56:57.020Z,45.65
2019-03-01T18:59:26.121Z,51.60
2019-03-01T19:01:55.337Z,43.95
2019-03-01T19:04:29.509Z,49.03
2019-03-01T19:06:57.716Z,51.73
2019-03-01T19:09:27.313Z,46.55
2019-03-01T19:11:59.203Z,49.48
2019-03-01T19:14:28.374Z,50.25
2019-03-01T19:16:57.537Z,46.55
2019-03-01T19:19:29.773Z,51.02
2019-03-01T19:21:59.468Z,51.28
2019-03-01T19:24:28.907Z,48.45
2019-03-01T19:26:58.173Z,51.63
2019-03-01T19:29:27.385Z,44.58
2019-03-01T19:31:56.647Z,56.83
2019-03-01T19:34:34.213Z,52.70
2019-03-01T19:37:34.312Z,47.80
2019-03-01T19:40:03.712Z,50.12
2019-03-01T19:42:34.157Z,47.85
2019-03-01T19:45:04.682Z,41.95
2019-03-01T19:47:34.400Z,48.00
2019-03-01T19:52:53.405Z,48.48
2019-03-01T19:55:24.120Z,57.17
2019-03-01T19:57:53.383Z,53.70
2019-03-01T20:00:23.408Z,41.25
2019-03-01T20:02:52.688Z,43.78
2019-03-01T20:05:23.662Z,45.43
2019-03-01T20:07:54.664Z,46.15
2019-03-01T20:10:25.036Z,42.88
2019-03-01T20:12:54.626Z,43.75
2019-03-01T20:15:24.120Z,44.05
2019-03-01T20:17:53.390Z,46.23
2019-03-01T20:20:22.771Z,38.05
2019-03-01T20:22:54.269Z,44.03
2019-03-01T20:25:23.507Z,52.15
2019-03-01T20:27:54.830Z,42.75
2019-03-01T20:30:30.237Z,54.48
2019-03-01T20:32:58.168Z,39.70
2019-03-01T20:35:27.471Z,38.05
2019-03-01T20:38:00.390Z,39.08
2019-03-01T20:40:29.840Z,39.42
2019-03-01T20:43:05.504Z,46.73
2019-03-01T20:45:31.446Z,39.27
2019-03-01T20:48:00.925Z,45.95
2019-03-01T20:51:17.048Z,40.50
2019-03-01T20:53:49.517Z,38.95
2019-03-01T20:56:25.267Z,40.92
2019-03-01T20:59:15.429Z,34.43
2019-03-01T21:01:47.513Z,39.85
2019-03-01T21:04:16.664Z,39.70
2019-03-01T21:06:46.264Z,38.70
2019-03-01T21:09:15.409Z,38.23
2019-03-01T21:11:44.667Z,30.30
2019-03-01T21:14:13.999Z,34.98
2019-03-01T21:16:44.749Z,38.65
2019-03-01T21:26:24.210Z,33.50
2019-03-01T21:29:19.986Z,28.50
2019-03-01T21:32:17.831Z,36.33
2019-03-01T21:35:10.525Z,48.25
2019-03-01T21:38:18.797Z,36.80
2019-03-01T21:44:35.781Z,42.30
2019-03-01T21:47:44.734Z,36.00
2019-03-01T21:50:23.768Z,31.80
2019-03-01T21:52:53.031Z,34.78
2019-03-01T21:55:25.014Z,39.42
2019-03-01T21:57:53.344Z,42.55
2019-03-01T22:00:25.332Z,32.95
2019-03-01T22:02:57.799Z,39.10
2019-03-01T22:08:58.604Z,37.28
2019-03-01T22:11:34.085Z,34.00
2019-03-01T22:14:16.534Z,42.93
2019-03-01T22:16:47.423Z,34.70
2019-03-01T22:19:17.512Z,35.63
2019-03-01T22:21:49.696Z,43.15
2019-03-01T22:24:18.986Z,32.40
2019-03-01T22:26:49.537Z,34.53
2019-03-01T22:29:21.187Z,34.03
2019-03-01T22:31:50.441Z,36.23
2019-03-01T22:34:19.689Z,31.57
2019-03-01T22:36:49.547Z,35.65
2019-03-01T22:39:19.859Z,32.50
2019-03-01T22:41:49.028Z,36.30
2019-03-01T22:44:18.467Z,35.00
2019-03-01T22:46:48.944Z,35.92
2019-03-01T22:49:18.168Z,32.00
2019-03-01T22:52:21.398Z,33.98
2019-03-01T22:54:51.006Z,34.00
2019-03-01T22:57:22.672Z,35.00
2019-03-01T23:01:25.210Z,29.98
2019-03-01T23:03:54.519Z,25.50
2019-03-01T23:06:22.287Z,22.95
2019-03-01T23:08:51.516Z,23.05
2019-03-01T23:11:20.685Z,24.98
2019-03-01T23:13:52.838Z,21.30
2019-03-01T23:16:20.688Z,20.25
2019-03-01T23:18:56.398Z,16.17
2019-03-01T23:21:20.857Z,25.95
2019-03-01T23:23:51.538Z,18.30
2019-03-01T23:26:21.603Z,15.95
2019-03-01T23:28:51.575Z,16.23
2019-03-01T23:31:20.687Z,17.60
2019-03-01T23:33:49.952Z,15.88
2019-03-01T23:36:20.277Z,18.85
2019-03-01T23:38:51.315Z,22.17
2019-03-01T23:41:20.556Z,18.85
2019-03-01T23:43:49.835Z,15.78
2019-03-01T23:46:20.299Z,16.77
2019-03-01T23:48:50.849Z,17.92
2019-03-01T23:51:20.076Z,16.30
2019-03-01T23:53:57.099Z,16.35
2019-03-01T23:56:26.760Z,15.63
2019-03-01T23:58:59.712Z,15.45
